createdAt,value
2023-07-21T00:01:58.424Z,20.16
2023-07-21T00:05:00.100Z,20.15
2023-07-21T00:08:01.738Z,20.14
2023-07-21T00:11:04.193Z,20.15
2023-07-21T00:14:11.197Z,20.15
2023-07-21T00:17:12.821Z,20.13
2023-07-21T00:20:20.830Z,20.13
2023-07-21T00:23:24.145Z,20.11
2023-07-21T00:26:26.149Z,20.11
2023-07-21T00:29:27.966Z,20.10
2023-07-21T00:32:32.436Z,20.11
2023-07-21T00:35:35.540Z,20.11
2023-07-21T00:38:37.080Z,20.12
2023-07-21T00:41:38.626Z,20.15
2023-07-21T00:44:40.189Z,20.17
2023-07-21T00:50:52.758Z,20.20
2023-07-21T00:53:55.309Z,20.18
2023-07-21T00:56:58.504Z,20.20
2023-07-21T01:00:01.557Z,20.17
2023-07-21T01:03:04.573Z,20.18
2023-07-21T01:06:08.824Z,20.17
2023-07-21T01:09:13.413Z,20.17
2023-07-21T01:12:15.539Z,20.16
2023-07-21T01:15:17.471Z,20.15
2023-07-21T01:18:20.656Z,20.14
2023-07-21T01:21:39.959Z,20.14
2023-07-21T01:25:10.524Z,20.15
2023-07-21T01:28:14.848Z,20.14
2023-07-21T01:31:18.062Z,20.13
2023-07-21T01:34:19.929Z,20.12
2023-07-21T01:37:24.450Z,20.11
2023-07-21T01:40:26.795Z,20.09
2023-07-21T01:43:28.610Z,20.09
2023-07-21T01:46:31.029Z,20.11
2023-07-21T01:49:32.644Z,20.11
2023-07-21T01:52:36.256Z,20.13
2023-07-21T01:55:44.224Z,20.12
2023-07-21T01:58:48.193Z,20.13
2023-07-21T02:01:55.049Z,20.14
2023-07-21T02:04:56.824Z,20.11
2023-07-21T02:07:59.172Z,20.08
2023-07-21T02:11:01.024Z,20.12
2023-07-21T02:14:21.274Z,20.13
2023-07-21T02:17:23.038Z,20.12
2023-07-21T02:20:24.643Z,20.13
2023-07-21T02:23:26.411Z,20.10
2023-07-21T02:26:28.378Z,20.10
2023-07-21T02:29:30.083Z,20.08
2023-07-21T02:32:31.812Z,20.07
2023-07-21T02:35:33.599Z,20.05
2023-07-21T02:38:35.262Z,20.07
2023-07-21T02:41:36.800Z,20.06
2023-07-21T02:44:38.464Z,20.05
2023-07-21T02:47:40.240Z,20.10
2023-07-21T02:50:42.430Z,20.12
2023-07-21T02:53:44.207Z,20.11
2023-07-21T02:56:45.851Z,20.09
2023-07-21T02:59:54.313Z,20.06
2023-07-21T03:03:04.880Z,20.04
2023-07-21T03:06:07.677Z,20.05
2023-07-21T03:09:10.744Z,20.05
2023-07-21T03:12:12.537Z,20.04
2023-07-21T03:15:34.091Z,20.04
2023-07-21T03:18:41.876Z,20.04
2023-07-21T03:21:47.669Z,20.05
2023-07-21T03:24:49.464Z,20.08
2023-07-21T03:27:52.911Z,20.11
2023-07-21T03:30:58.627Z,20.11
2023-07-21T03:34:00.325Z,20.11
2023-07-21T03:37:06.002Z,20.11
2023-07-21T03:40:08.729Z,20.08
2023-07-21T03:43:10.385Z,20.09
2023-07-21T03:46:13.758Z,20.09
2023-07-21T03:49:36.315Z,20.07
2023-07-21T03:52:43.976Z,20.05
2023-07-21T03:55:49.236Z,20.01
2023-07-21T03:58:50.781Z,20.00
2023-07-21T04:01:53.464Z,20.01
2023-07-21T04:04:55.209Z,20.03
2023-07-21T04:07:57.400Z,20.05
2023-07-21T04:10:58.970Z,20.06
2023-07-21T04:14:02.046Z,20.07
2023-07-21T04:17:03.917Z,20.08
2023-07-21T04:20:07.468Z,20.08
2023-07-21T04:23:10.188Z,20.09
2023-07-21T04:26:16.031Z,20.08
2023-07-21T04:29:29.843Z,20.06
2023-07-21T04:32:39.868Z,20.06
2023-07-21T04:35:47.074Z,20.06
2023-07-21T04:38:52.235Z,20.04
2023-07-21T04:41:55.558Z,20.04
2023-07-21T04:44:57.334Z,20.05
2023-07-21T04:47:59.159Z,20.08
2023-07-21T04:51:02.366Z,20.07
2023-07-21T04:54:04.115Z,20.06
2023-07-21T04:57:06.279Z,20.07
2023-07-21T05:00:13.007Z,20.05
2023-07-21T05:03:14.916Z,20.06
2023-07-21T05:06:18.253Z,20.06
2023-07-21T05:09:24.558Z,20.08
2023-07-21T05:12:28.060Z,20.09
2023-07-21T05:16:02.079Z,20.11
2023-07-21T05:19:14.473Z,20.11
2023-07-21T05:22:37.063Z,20.13
2023-07-21T05:25:38.836Z,20.13
2023-07-21T05:28:40.653Z,20.14
2023-07-21T05:31:42.490Z,20.13
2023-07-21T05:34:57.372Z,20.15
2023-07-21T05:37:59.188Z,20.15
2023-07-21T05:45:26.028Z,20.16
2023-07-21T05:48:29.482Z,20.17
2023-07-21T05:51:36.634Z,20.17
2023-07-21T05:54:49.800Z,20.16
2023-07-21T05:57:54.067Z,20.17
2023-07-21T06:00:55.740Z,20.17
2023-07-21T06:03:57.690Z,20.16
2023-07-21T06:06:59.616Z,20.16
2023-07-21T06:10:25.069Z,20.17
2023-07-21T06:13:40.279Z,20.20
2023-07-21T06:17:08.012Z,20.19
2023-07-21T06:23:13.860Z,20.21
2023-07-21T06:26:16.042Z,20.24
2023-07-21T06:29:18.205Z,20.26
2023-07-21T06:32:20.243Z,20.26
2023-07-21T06:35:42.638Z,20.28
2023-07-21T06:39:10.475Z,20.30
2023-07-21T06:42:45.090Z,20.31
2023-07-21T06:46:24.879Z,20.32
2023-07-21T06:49:50.716Z,20.33
2023-07-21T06:53:06.483Z,20.36
2023-07-21T06:56:08.397Z,20.34
2023-07-21T06:59:09.978Z,20.35
2023-07-21T07:02:11.742Z,20.37
2023-07-21T07:05:15.073Z,20.37
2023-07-21T07:08:17.125Z,20.38
2023-07-21T07:11:18.770Z,20.38
2023-07-21T07:14:20.392Z,20.40
2023-07-21T07:17:21.983Z,20.40
2023-07-21T07:20:24.443Z,20.40
2023-07-21T07:23:26.090Z,20.41
2023-07-21T07:26:29.163Z,20.41
2023-07-21T07:29:31.668Z,20.43
2023-07-21T07:32:33.444Z,20.44
2023-07-21T07:35:35.110Z,20.45
2023-07-21T07:38:36.669Z,20.48
2023-07-21T07:41:39.294Z,20.48
2023-07-21T07:44:40.855Z,20.48
2023-07-21T07:47:44.253Z,20.49
2023-07-21T07:50:45.877Z,20.49
2023-07-21T07:53:47.419Z,20.50
2023-07-21T07:56:49.148Z,20.50
2023-07-21T07:59:51.759Z,20.51
2023-07-21T08:02:53.442Z,20.50
2023-07-21T08:05:55.406Z,20.53
2023-07-21T08:08:56.978Z,20.55
2023-07-21T08:12:00.106Z,20.56
2023-07-21T08:15:02.030Z,20.56
2023-07-21T08:18:04.245Z,20.58
2023-07-21T08:21:23.812Z,20.58
2023-07-21T08:24:25.919Z,20.55
2023-07-21T08:27:29.011Z,20.52
2023-07-21T08:30:38.221Z,20.52
2023-07-21T08:33:45.606Z,20.55
2023-07-21T08:36:54.570Z,20.56
2023-07-21T08:39:58.959Z,20.55
2023-07-21T08:43:04.200Z,20.55
2023-07-21T08:46:09.667Z,20.53
2023-07-21T08:49:13.216Z,20.55
2023-07-21T08:52:15.868Z,20.54
2023-07-21T08:55:17.945Z,20.54
2023-07-21T08:58:20.509Z,20.54
2023-07-21T09:01:22.134Z,20.54
2023-07-21T09:04:25.766Z,20.58
2023-07-21T09:07:27.473Z,20.59
2023-07-21T09:10:34.645Z,20.62
2023-07-21T09:13:36.378Z,20.62
2023-07-21T09:16:41.030Z,20.64
2023-07-21T09:19:45.257Z,20.65
2023-07-21T09:22:50.953Z,20.68
2023-07-21T09:25:54.566Z,20.69
2023-07-21T09:28:56.121Z,20.72
2023-07-21T09:31:58.124Z,20.75
2023-07-21T09:35:02.036Z,20.76
2023-07-21T09:38:03.747Z,20.77
2023-07-21T09:41:13.716Z,20.81
2023-07-21T09:44:16.118Z,20.79
2023-07-21T09:47:18.329Z,20.79
2023-07-21T09:50:20.074Z,20.78
2023-07-21T09:53:26.247Z,20.78
2023-07-21T09:56:31.050Z,20.79
2023-07-21T09:59:35.700Z,20.79
2023-07-21T10:02:37.451Z,20.79
2023-07-21T10:05:41.958Z,20.80
2023-07-21T10:08:44.066Z,20.83
2023-07-21T10:11:47.748Z,20.85
2023-07-21T10:14:52.840Z,20.87
2023-07-21T10:18:04.523Z,20.90
2023-07-21T10:21:07.156Z,20.90
2023-07-21T10:24:09.022Z,20.91
2023-07-21T10:27:22.699Z,20.94
2023-07-21T10:30:24.891Z,20.94
2023-07-21T10:33:30.457Z,20.97
2023-07-21T10:36:53.308Z,20.99
2023-07-21T10:39:55.957Z,20.99
2023-07-21T10:42:57.890Z,20.98
2023-07-21T10:45:59.571Z,20.98
2023-07-21T10:49:01.352Z,21.00
2023-07-21T10:52:03.856Z,21.01
2023-07-21T10:55:05.881Z,21.00
2023-07-21T10:58:07.552Z,21.01
2023-07-21T11:01:09.228Z,21.02
2023-07-21T11:04:12.442Z,21.02
2023-07-21T11:07:14.478Z,21.03
2023-07-21T11:10:16.897Z,21.04
2023-07-21T11:13:18.767Z,21.04
2023-07-21T11:16:20.369Z,21.05
2023-07-21T11:19:23.979Z,21.08
2023-07-21T11:22:25.585Z,21.08
2023-07-21T11:25:27.516Z,21.08
2023-07-21T11:28:30.345Z,21.09
2023-07-21T11:31:34.275Z,21.09
2023-07-21T11:34:37.350Z,21.10
2023-07-21T11:37:41.179Z,21.09
2023-07-21T11:40:46.290Z,21.09
2023-07-21T11:43:50.858Z,21.10
2023-07-21T11:47:11.212Z,21.10
2023-07-21T11:50:14.598Z,21.08
2023-07-21T11:53:16.754Z,21.09
2023-07-21T11:56:18.759Z,21.09
2023-07-21T11:59:21.529Z,21.08
2023-07-21T12:02:24.817Z,21.09
2023-07-21T12:05:26.812Z,21.08
2023-07-21T12:08:28.375Z,21.09
2023-07-21T12:11:29.909Z,21.08
2023-07-21T12:14:31.508Z,21.10
2023-07-21T12:17:33.901Z,21.12
2023-07-21T12:20:35.521Z,21.13
2023-07-21T12:23:37.668Z,21.13
2023-07-21T12:26:39.481Z,21.12
2023-07-21T12:29:46.321Z,21.12
2023-07-21T12:32:48.832Z,21.13
2023-07-21T12:35:50.775Z,21.14
2023-07-21T12:38:52.631Z,21.14
2023-07-21T12:41:57.081Z,21.16
2023-07-21T12:44:59.488Z,21.15
2023-07-21T12:48:01.780Z,21.16
2023-07-21T12:51:03.869Z,21.17
2023-07-21T12:54:05.830Z,21.18
2023-07-21T12:57:08.382Z,21.19
2023-07-21T13:00:14.402Z,21.20
2023-07-21T13:03:16.656Z,21.20
2023-07-21T13:06:18.502Z,21.20
2023-07-21T13:09:20.378Z,21.22
2023-07-21T13:12:22.349Z,21.22
2023-07-21T13:15:24.192Z,21.23
2023-07-21T13:18:25.766Z,21.24
2023-07-21T13:21:27.308Z,21.24
2023-07-21T13:24:29.274Z,21.25
2023-07-21T13:27:30.942Z,21.26
2023-07-21T13:30:32.556Z,21.26
2023-07-21T13:33:34.096Z,21.27
2023-07-21T13:36:35.667Z,21.28
2023-07-21T13:39:37.373Z,21.30
2023-07-21T13:42:39.063Z,21.31
2023-07-21T13:45:40.650Z,21.32
2023-07-21T13:48:42.428Z,21.32
2023-07-21T13:51:44.295Z,21.34
2023-07-21T13:54:45.895Z,21.34
2023-07-21T13:57:47.733Z,21.35
2023-07-21T14:00:49.365Z,21.31
2023-07-21T14:03:50.987Z,21.21
2023-07-21T14:06:52.679Z,21.18
2023-07-21T14:09:54.228Z,21.16
2023-07-21T14:12:55.761Z,21.17
2023-07-21T14:15:57.382Z,21.15
2023-07-21T14:19:00.322Z,21.14
2023-07-21T14:22:01.866Z,21.12
2023-07-21T14:25:04.103Z,21.06
2023-07-21T14:28:05.687Z,21.03
2023-07-21T14:31:07.916Z,21.02
2023-07-21T14:34:09.496Z,21.04
2023-07-21T14:37:11.057Z,21.00
2023-07-21T14:40:13.138Z,20.98
2023-07-21T14:43:14.932Z,20.95
2023-07-21T14:46:16.536Z,20.93
2023-07-21T14:49:18.173Z,20.90
2023-07-21T14:52:19.727Z,20.93
2023-07-21T14:55:21.292Z,20.94
2023-07-21T14:58:22.902Z,20.93
2023-07-21T15:01:24.596Z,20.93
2023-07-21T15:04:26.880Z,20.94
2023-07-21T15:07:28.444Z,20.93
2023-07-21T15:10:30.020Z,20.91
2023-07-21T15:13:31.787Z,20.88
2023-07-21T15:16:33.722Z,20.85
2023-07-21T15:19:35.293Z,20.86
2023-07-21T15:22:36.819Z,20.87
2023-07-21T15:25:38.420Z,20.88
2023-07-21T15:28:40.117Z,20.83
2023-07-21T15:31:42.034Z,20.84
2023-07-21T15:34:43.737Z,20.85
2023-07-21T15:37:45.321Z,20.86
2023-07-21T15:40:46.976Z,20.87
2023-07-21T15:43:48.551Z,20.89
2023-07-21T15:46:50.552Z,20.90
2023-07-21T15:49:52.952Z,20.95
2023-07-21T15:52:54.634Z,20.96
2023-07-21T15:55:56.246Z,20.98
2023-07-21T15:58:57.764Z,20.99
2023-07-21T16:01:59.394Z,20.99
2023-07-21T16:05:01.800Z,21.01
2023-07-21T16:08:04.600Z,20.96
2023-07-21T16:11:06.336Z,20.91
2023-07-21T16:14:07.957Z,20.89
2023-07-21T16:17:09.735Z,20.89
2023-07-21T16:20:13.389Z,20.89
2023-07-21T16:23:14.975Z,20.90
2023-07-21T16:26:19.426Z,20.92
2023-07-21T16:29:21.103Z,20.95
2023-07-21T16:32:22.843Z,20.94
2023-07-21T16:35:24.665Z,20.97
2023-07-21T16:38:26.257Z,21.00
2023-07-21T16:41:28.199Z,21.03
2023-07-21T16:44:34.338Z,21.08
2023-07-21T16:47:36.107Z,21.08
2023-07-21T16:50:39.815Z,21.11
2023-07-21T16:53:41.330Z,21.08
2023-07-21T16:56:42.913Z,21.05
2023-07-21T16:59:55.909Z,21.04
2023-07-21T17:02:58.381Z,21.04
2023-07-21T17:05:59.997Z,21.05
2023-07-21T17:09:01.941Z,21.06
2023-07-21T17:12:03.666Z,21.07
2023-07-21T17:15:06.091Z,21.06
2023-07-21T17:18:08.682Z,21.05
2023-07-21T17:21:10.504Z,21.07
2023-07-21T17:24:12.074Z,21.04
2023-07-21T17:27:13.983Z,21.03
2023-07-21T17:30:15.930Z,21.03
2023-07-21T17:33:17.661Z,21.04
2023-07-21T17:36:19.215Z,21.08
2023-07-21T17:39:20.760Z,21.10
2023-07-21T17:42:22.425Z,21.11
2023-07-21T17:45:24.725Z,21.13
2023-07-21T17:48:26.666Z,21.15
2023-07-21T17:51:28.487Z,21.15
2023-07-21T17:54:30.224Z,21.16
2023-07-21T17:57:32.573Z,21.18
2023-07-21T18:00:39.903Z,21.19
2023-07-21T18:03:44.690Z,21.20
2023-07-21T18:06:46.214Z,21.23
2023-07-21T18:09:47.730Z,21.23
2023-07-21T18:12:49.837Z,21.22
2023-07-21T18:15:51.856Z,21.24
2023-07-21T18:18:53.328Z,21.24
2023-07-21T18:21:55.497Z,21.24
2023-07-21T18:24:57.179Z,21.26
2023-07-21T18:27:58.825Z,21.25
2023-07-21T18:31:00.396Z,21.25
2023-07-21T18:34:02.002Z,21.26
2023-07-21T18:37:03.950Z,21.26
2023-07-21T18:40:15.034Z,21.28
2023-07-21T18:43:16.546Z,21.28
2023-07-21T18:46:18.155Z,21.28
2023-07-21T18:49:21.954Z,21.27
2023-07-21T18:52:25.463Z,21.27
2023-07-21T18:55:27.696Z,21.26
2023-07-21T18:58:29.183Z,21.21
2023-07-21T19:01:31.832Z,21.18
2023-07-21T19:04:33.500Z,21.12
2023-07-21T19:07:35.179Z,21.09
2023-07-21T19:10:39.547Z,21.06
2023-07-21T19:13:41.085Z,21.00
2023-07-21T19:16:42.661Z,20.98
2023-07-21T19:19:45.630Z,21.00
2023-07-21T19:22:47.269Z,21.04
2023-07-21T19:25:52.374Z,21.06
2023-07-21T19:28:54.026Z,21.09
2023-07-21T19:31:55.771Z,21.11
2023-07-21T19:34:57.412Z,21.12
2023-07-21T19:37:59.031Z,21.14
2023-07-21T19:41:06.672Z,21.19
2023-07-21T19:44:08.268Z,21.18
2023-07-21T19:47:10.000Z,21.21
2023-07-21T19:50:12.926Z,21.22
2023-07-21T19:53:14.499Z,21.24
2023-07-21T19:56:17.708Z,21.27
2023-07-21T19:59:19.352Z,21.26
2023-07-21T20:02:21.065Z,21.28
2023-07-21T20:05:22.720Z,21.30
2023-07-21T20:08:24.437Z,21.32
2023-07-21T20:11:26.574Z,21.33
2023-07-21T20:14:28.241Z,21.34
2023-07-21T20:17:29.932Z,21.36
2023-07-21T20:20:33.154Z,21.37
2023-07-21T20:23:35.188Z,21.38
2023-07-21T20:26:37.417Z,21.39
2023-07-21T20:29:39.009Z,21.40
2023-07-21T20:32:43.719Z,21.40
2023-07-21T20:35:47.257Z,21.41
2023-07-21T20:38:48.850Z,21.41
2023-07-21T20:41:50.583Z,21.42
2023-07-21T20:44:52.159Z,21.42
2023-07-21T20:47:53.844Z,21.43
2023-07-21T20:50:57.339Z,21.44
2023-07-21T20:53:58.923Z,21.45
2023-07-21T20:57:00.463Z,21.44
2023-07-21T21:00:02.130Z,21.45
2023-07-21T21:03:04.078Z,21.46
2023-07-21T21:06:05.838Z,21.46
2023-07-21T21:09:07.731Z,21.45
2023-07-21T21:12:11.357Z,21.47
2023-07-21T21:15:12.997Z,21.47
2023-07-21T21:18:15.488Z,21.49
2023-07-21T21:21:17.221Z,21.46
2023-07-21T21:24:19.120Z,21.47
2023-07-21T21:27:20.732Z,21.47
2023-07-21T21:30:23.968Z,21.48
2023-07-21T21:33:26.069Z,21.48
2023-07-21T21:36:27.919Z,21.48
2023-07-21T21:39:29.707Z,21.47
2023-07-21T21:42:34.355Z,21.48
2023-07-21T21:45:35.985Z,21.49
2023-07-21T21:48:37.593Z,21.50
2023-07-21T21:51:39.144Z,21.49
2023-07-21T21:54:40.936Z,21.49
2023-07-21T21:57:43.910Z,21.49
2023-07-21T22:00:45.642Z,21.51
2023-07-21T22:03:47.517Z,21.51
2023-07-21T22:06:49.184Z,21.51
2023-07-21T22:09:50.729Z,21.51
2023-07-21T22:12:52.463Z,21.51
2023-07-21T22:15:54.143Z,21.51
2023-07-21T22:18:55.749Z,21.52
2023-07-21T22:21:57.297Z,21.51
2023-07-21T22:24:58.920Z,21.52
2023-07-21T22:28:03.162Z,21.53
2023-07-21T22:31:15.655Z,21.55
2023-07-21T22:34:17.339Z,21.53
2023-07-21T22:37:18.966Z,21.53
2023-07-21T22:40:20.652Z,21.53
2023-07-21T22:43:22.223Z,21.53
2023-07-21T22:46:24.662Z,21.53
2023-07-21T22:49:26.694Z,21.54
2023-07-21T22:52:28.251Z,21.53
2023-07-21T22:55:29.835Z,21.54
2023-07-21T22:58:31.420Z,21.54
2023-07-21T23:01:33.085Z,21.54
2023-07-21T23:04:34.843Z,21.54
2023-07-21T23:07:36.627Z,21.54
2023-07-21T23:10:38.269Z,21.54
2023-07-21T23:13:39.868Z,21.53
2023-07-21T23:16:41.436Z,21.51
2023-07-21T23:19:42.994Z,21.52
2023-07-21T23:22:44.579Z,21.49
2023-07-21T23:25:46.160Z,21.49
2023-07-21T23:28:48.421Z,21.47
2023-07-21T23:31:50.002Z,21.47
2023-07-21T23:34:51.648Z,21.46
2023-07-21T23:37:53.219Z,21.47
2023-07-21T23:40:54.891Z,21.45
2023-07-21T23:43:56.475Z,21.43
2023-07-21T23:46:58.096Z,21.43
2023-07-21T23:49:59.699Z,21.42
2023-07-21T23:53:01.277Z,21.42
2023-07-21T23:56:02.834Z,21.40
2023-07-21T23:59:04.406Z,21.40
